Time;durP1;ratioP1;P1;durP2;ratioP2;P2;SDS_P1;SDS_P2;PMS_P1;PMS_P2;Temp;Humidity;BMP_temperature;BMP_pressure;BME280_temperature;BME280_humidity;BME280_pressure;Samples;Min_cycle;Max_cycle;Signal;HPM_P1;HPM_P2
2024/04/26 00:02:16;;;;;;;3.58;1.83;;;;;;;;;;5361329;26;20055;-69
2024/04/26 00:04:42;;;;;;;2.85;1.85;;;;;;;;;;5362598;26;20019;-70
2024/04/26 00:07:08;;;;;;;2.83;1.52;;;;;;;;;;5358473;26;20011;-68
2024/04/26 00:09:34;;;;;;;3.90;1.42;;;;;;;;;;5355391;26;20001;-69
2024/04/26 00:12:00;;;;;;;2.58;1.42;;;;;;;;;;5355411;26;20000;-69
2024/04/26 00:14:27;;;;;;;4.35;1.80;;;;;;;;;;5372203;26;20417;-69
2024/04/26 00:16:54;;;;;;;2.35;1.35;;;;;;;;;;5363213;26;20471;-69
2024/04/26 00:19:20;;;;;;;3.67;2.00;;;;;;;;;;5355855;26;20146;-68
2024/04/26 00:21:46;;;;;;;2.65;1.42;;;;;;;;;;5368271;26;20086;-69
2024/04/26 00:24:16;;;;;;;2.92;1.75;;;;;;;;;;5371336;26;20019;-70
2024/04/26 00:26:42;;;;;;;2.60;1.60;;;;;;;;;;5346796;26;20019;-68
2024/04/26 00:29:09;;;;;;;4.28;2.15;;;;;;;;;;5357608;26;20027;-68
2024/04/26 00:31:35;;;;;;;2.67;1.40;;;;;;;;;;5359031;26;20068;-68
2024/04/26 00:34:01;;;;;;;3.92;1.55;;;;;;;;;;5358694;26;20016;-72
2024/04/26 00:36:27;;;;;;;3.00;1.88;;;;;;;;;;5358322;26;20004;-68
2024/04/26 00:38:53;;;;;;;2.13;1.52;;;;;;;;;;5363514;26;19992;-70
2024/04/26 00:41:19;;;;;;;4.65;1.48;;;;;;;;;;5365387;26;20126;-68
2024/04/26 00:43:54;;;;;;;5.80;2.03;;;;;;;;;;5360900;26;20021;-69
2024/04/26 00:46:20;;;;;;;3.83;1.70;;;;;;;;;;5365237;26;20000;-69
2024/04/26 00:48:46;;;;;;;2.50;1.58;;;;;;;;;;5350236;26;20036;-70
2024/04/26 00:51:12;;;;;;;3.65;1.95;;;;;;;;;;5357318;26;20048;-71
2024/04/26 00:53:39;;;;;;;4.10;1.88;;;;;;;;;;5362114;26;20182;-68
2024/04/26 00:56:05;;;;;;;4.78;1.92;;;;;;;;;;5353567;26;20015;-69
2024/04/26 00:58:32;;;;;;;4.07;1.77;;;;;;;;;;5366030;26;20308;-69
2024/04/26 01:01:02;;;;;;;2.72;1.73;;;;;;;;;;5364096;26;20000;-69
2024/04/26 01:03:28;;;;;;;3.50;2.13;;;;;;;;;;5344098;26;19997;-72
2024/04/26 01:05:54;;;;;;;5.57;2.60;;;;;;;;;;5354034;26;20397;-69
2024/04/26 01:08:20;;;;;;;3.08;2.00;;;;;;;;;;5355863;26;20077;-69
2024/04/26 01:10:46;;;;;;;3.92;2.38;;;;;;;;;;5361004;26;20081;-69
2024/04/26 01:13:12;;;;;;;3.72;2.03;;;;;;;;;;5358357;26;19997;-69
2024/04/26 01:15:38;;;;;;;4.63;2.20;;;;;;;;;;5366789;26;20557;-69
2024/04/26 01:18:04;;;;;;;4.03;2.25;;;;;;;;;;5357190;26;20022;-70
2024/04/26 01:20:29;;;;;;;5.00;2.13;;;;;;;;;;5363578;26;20001;-70
2024/04/26 01:22:59;;;;;;;3.55;1.85;;;;;;;;;;5353446;26;20000;-68
2024/04/26 01:25:25;;;;;;;3.80;1.80;;;;;;;;;;5361964;26;20004;-68
2024/04/26 01:27:50;;;;;;;3.53;1.95;;;;;;;;;;5360077;26;20019;-70
2024/04/26 01:30:19;;;;;;;4.82;2.35;;;;;;;;;;5370401;26;20000;-69
2024/04/26 01:32:46;;;;;;;3.97;2.03;;;;;;;;;;5363650;26;20048;-69
2024/04/26 01:35:13;;;;;;;4.63;2.33;;;;;;;;;;5362391;26;20131;-69
2024/04/26 01:37:39;;;;;;;4.38;2.10;;;;;;;;;;5361054;26;20042;-69
2024/04/26 01:40:05;;;;;;;2.83;1.63;;;;;;;;;;5352483;26;20004;-69
2024/04/26 01:42:31;;;;;;;4.68;2.00;;;;;;;;;;5363271;26;20016;-69
2024/04/26 01:44:57;;;;;;;4.95;2.80;;;;;;;;;;5368423;26;19996;-70
2024/04/26 01:47:22;;;;;;;5.80;2.38;;;;;;;;;;5357624;26;20078;-69
2024/04/26 01:49:48;;;;;;;5.25;2.45;;;;;;;;;;5361509;26;19996;-69
2024/04/26 01:52:14;;;;;;;4.47;2.38;;;;;;;;;;5349762;26;20020;-68
2024/04/26 01:54:40;;;;;;;3.28;2.05;;;;;;;;;;5360864;26;20082;-69
2024/04/26 01:57:06;;;;;;;2.95;2.05;;;;;;;;;;5361294;26;20000;-68
2024/04/26 01:59:32;;;;;;;4.85;2.42;;;;;;;;;;5366706;26;20015;-69
2024/04/26 02:01:58;;;;;;;4.28;2.83;;;;;;;;;;5363436;26;20029;-69
2024/04/26 02:04:24;;;;;;;6.82;2.03;;;;;;;;;;5360199;26;20015;-70
2024/04/26 02:06:50;;;;;;;2.88;1.70;;;;;;;;;;5342423;26;20355;-69
2024/04/26 02:09:16;;;;;;;5.22;2.20;;;;;;;;;;5365169;26;20000;-70
2024/04/26 02:11:42;;;;;;;3.53;2.08;;;;;;;;;;5337063;26;20016;-69
2024/04/26 02:14:08;;;;;;;3.08;2.00;;;;;;;;;;5350755;26;20000;-69
2024/04/26 02:16:33;;;;;;;3.88;1.95;;;;;;;;;;5359357;26;20537;-70
2024/04/26 02:18:59;;;;;;;4.60;2.30;;;;;;;;;;5362014;26;20043;-69
2024/04/26 02:21:25;;;;;;;3.38;1.95;;;;;;;;;;5353133;26;20078;-70
2024/04/26 02:23:51;;;;;;;4.65;2.55;;;;;;;;;;5363234;26;20075;-69
2024/04/26 02:26:18;;;;;;;3.42;1.85;;;;;;;;;;5355156;26;20382;-69
2024/04/26 02:28:44;;;;;;;3.65;1.92;;;;;;;;;;5357757;26;20029;-70
2024/04/26 02:31:13;;;;;;;5.00;1.92;;;;;;;;;;5366522;26;20000;-69
2024/04/26 02:33:40;;;;;;;3.40;2.20;;;;;;;;;;5350355;26;20371;-70
2024/04/26 02:36:09;;;;;;;3.58;1.92;;;;;;;;;;5356902;26;20085;-69
2024/04/26 02:38:39;;;;;;;6.35;2.35;;;;;;;;;;5354229;26;20024;-69
2024/04/26 02:41:05;;;;;;;3.78;2.25;;;;;;;;;;5357461;26;20135;-70
2024/04/26 02:43:31;;;;;;;3.47;2.20;;;;;;;;;;5360854;26;20008;-73
2024/04/26 02:45:57;;;;;;;2.85;1.50;;;;;;;;;;5364001;26;20359;-70
2024/04/26 02:48:23;;;;;;;3.42;2.05;;;;;;;;;;5362709;26;20004;-70
2024/04/26 02:50:49;;;;;;;4.40;2.22;;;;;;;;;;5354778;26;20013;-69
2024/04/26 02:53:15;;;;;;;4.25;1.98;;;;;;;;;;5358076;26;20355;-70
2024/04/26 02:55:41;;;;;;;4.63;2.35;;;;;;;;;;5363007;26;20379;-70
2024/04/26 02:58:06;;;;;;;4.78;2.65;;;;;;;;;;5358559;26;20045;-69
2024/04/26 03:00:32;;;;;;;2.35;1.73;;;;;;;;;;5363857;26;19997;-70
2024/04/26 03:02:58;;;;;;;3.83;2.08;;;;;;;;;;5359911;26;20139;-69
2024/04/26 03:05:24;;;;;;;4.47;2.00;;;;;;;;;;5365029;26;20000;-70
2024/04/26 03:07:50;;;;;;;3.30;1.88;;;;;;;;;;5367549;26;20452;-69
2024/04/26 03:10:16;;;;;;;3.75;1.90;;;;;;;;;;5359850;26;20492;-69
2024/04/26 03:12:42;;;;;;;3.10;2.13;;;;;;;;;;5362113;26;20001;-70
2024/04/26 03:15:08;;;;;;;3.47;1.80;;;;;;;;;;5359179;26;20028;-69
2024/04/26 03:17:36;;;;;;;3.90;2.03;;;;;;;;;;5353091;26;20016;-69
2024/04/26 03:20:02;;;;;;;4.13;2.10;;;;;;;;;;5364494;26;20131;-70
2024/04/26 03:22:28;;;;;;;4.47;2.15;;;;;;;;;;5366976;26;20080;-70
2024/04/26 03:24:54;;;;;;;4.10;2.10;;;;;;;;;;5360269;26;20424;-69
2024/04/26 03:27:20;;;;;;;2.35;1.58;;;;;;;;;;5364529;26;20004;-69
2024/04/26 03:29:46;;;;;;;4.00;1.90;;;;;;;;;;5356553;26;20091;-69
2024/04/26 03:32:12;;;;;;;4.22;1.77;;;;;;;;;;5362223;26;20033;-69
2024/04/26 03:34:38;;;;;;;5.28;2.35;;;;;;;;;;5365580;26;20039;-70
2024/04/26 03:37:04;;;;;;;3.35;1.80;;;;;;;;;;5357880;26;20120;-71
2024/04/26 03:39:30;;;;;;;3.33;1.70;;;;;;;;;;5364346;26;20278;-72
2024/04/26 03:41:56;;;;;;;2.50;1.60;;;;;;;;;;5362582;26;20139;-69
2024/04/26 03:44:22;;;;;;;2.42;1.65;;;;;;;;;;5352315;26;20012;-69
2024/04/26 03:46:48;;;;;;;2.35;1.70;;;;;;;;;;5369140;26;20015;-69
2024/04/26 03:49:14;;;;;;;5.95;2.28;;;;;;;;;;5350178;26;20031;-69
2024/04/26 03:51:39;;;;;;;3.58;1.92;;;;;;;;;;5358184;26;20060;-69
2024/04/26 03:54:05;;;;;;;2.53;1.63;;;;;;;;;;5351318;26;19996;-69
2024/04/26 03:56:31;;;;;;;4.68;2.05;;;;;;;;;;5367457;26;20115;-70
2024/04/26 03:58:57;;;;;;;2.40;1.50;;;;;;;;;;5368238;26;20096;-70
2024/04/26 04:01:23;;;;;;;4.20;1.90;;;;;;;;;;5366621;26;20016;-70
2024/04/26 04:03:49;;;;;;;3.20;1.63;;;;;;;;;;5363707;26;20056;-68
2024/04/26 04:06:15;;;;;;;2.03;1.10;;;;;;;;;;5363729;26;19996;-71
2024/04/26 04:08:42;;;;;;;4.60;2.25;;;;;;;;;;5359798;26;20000;-69
2024/04/26 04:11:09;;;;;;;3.72;1.92;;;;;;;;;;5368482;26;20104;-69
2024/04/26 04:13:34;;;;;;;2.90;1.63;;;;;;;;;;5358184;26;20305;-72
2024/04/26 04:16:00;;;;;;;5.00;2.13;;;;;;;;;;5365075;26;20008;-70
2024/04/26 04:18:27;;;;;;;5.13;1.80;;;;;;;;;;5365608;26;20005;-69
2024/04/26 04:20:53;;;;;;;2.72;1.55;;;;;;;;;;5351518;26;20018;-69
2024/04/26 04:23:19;;;;;;;5.03;2.05;;;;;;;;;;5365212;26;19999;-69
2024/04/26 04:25:45;;;;;;;3.95;2.13;;;;;;;;;;5361161;26;20019;-69
2024/04/26 04:28:11;;;;;;;3.60;1.67;;;;;;;;;;5365824;26;20001;-68
2024/04/26 04:30:37;;;;;;;3.13;1.75;;;;;;;;;;5364967;26;20149;-67
2024/04/26 04:33:03;;;;;;;3.17;2.00;;;;;;;;;;5352774;26;20050;-67
2024/04/26 04:35:31;;;;;;;4.68;1.75;;;;;;;;;;5367365;26;20374;-66
2024/04/26 04:37:58;;;;;;;3.65;2.00;;;;;;;;;;5362597;26;20016;-66
2024/04/26 04:40:24;;;;;;;3.30;1.75;;;;;;;;;;5349613;26;20126;-66
2024/04/26 04:42:50;;;;;;;4.50;2.03;;;;;;;;;;5362917;26;20017;-67
2024/04/26 04:45:15;;;;;;;4.93;2.13;;;;;;;;;;5366535;26;20409;-66
2024/04/26 04:47:41;;;;;;;3.58;2.03;;;;;;;;;;5372481;26;20019;-66
2024/04/26 04:50:07;;;;;;;2.92;1.60;;;;;;;;;;5360502;26;20014;-66
2024/04/26 04:52:33;;;;;;;3.67;1.92;;;;;;;;;;5352876;26;20075;-66
2024/04/26 04:54:59;;;;;;;2.83;1.52;;;;;;;;;;5355506;26;20084;-67
2024/04/26 04:57:25;;;;;;;3.45;1.67;;;;;;;;;;5373107;26;20000;-66
2024/04/26 04:59:51;;;;;;;4.60;2.00;;;;;;;;;;5367937;26;20145;-67
2024/04/26 05:02:17;;;;;;;3.80;1.95;;;;;;;;;;5360619;26;20017;-67
2024/04/26 05:04:43;;;;;;;2.92;1.73;;;;;;;;;;5356832;26;20005;-67
2024/04/26 05:07:09;;;;;;;3.85;2.00;;;;;;;;;;5370060;26;20015;-67
2024/04/26 05:09:34;;;;;;;4.68;1.85;;;;;;;;;;5362497;26;20020;-68
2024/04/26 05:12:00;;;;;;;3.38;1.85;;;;;;;;;;5361523;26;20011;-68
2024/04/26 05:14:26;;;;;;;4.75;2.08;;;;;;;;;;5370397;26;20223;-66
2024/04/26 05:16:52;;;;;;;2.85;1.60;;;;;;;;;;5369135;26;20008;-66
2024/04/26 05:19:18;;;;;;;4.50;2.50;;;;;;;;;;5371246;26;20392;-66
2024/04/26 05:21:44;;;;;;;3.58;2.00;;;;;;;;;;5356574;26;20000;-67
2024/04/26 05:24:10;;;;;;;3.17;1.60;;;;;;;;;;5370938;26;21206;-66
2024/04/26 05:26:36;;;;;;;2.97;1.73;;;;;;;;;;5348945;26;19997;-67
2024/04/26 05:29:02;;;;;;;3.60;1.77;;;;;;;;;;5365414;26;20016;-66
2024/04/26 05:31:28;;;;;;;6.03;2.15;;;;;;;;;;5361888;26;20087;-66
2024/04/26 05:33:54;;;;;;;4.63;2.00;;;;;;;;;;5363698;26;20153;-66
2024/04/26 05:36:20;;;;;;;2.80;1.65;;;;;;;;;;5369236;26;20031;-66
2024/04/26 05:38:46;;;;;;;3.75;2.05;;;;;;;;;;5364240;26;20081;-68
2024/04/26 05:41:15;;;;;;;3.55;2.03;;;;;;;;;;5367080;26;20018;-66
2024/04/26 05:43:41;;;;;;;4.25;2.10;;;;;;;;;;5368473;26;20121;-66
2024/04/26 05:46:10;;;;;;;3.58;1.83;;;;;;;;;;5366580;26;20020;-67
2024/04/26 05:48:36;;;;;;;3.50;1.98;;;;;;;;;;5353868;26;20280;-66
2024/04/26 05:51:01;;;;;;;2.78;1.50;;;;;;;;;;5367179;26;20000;-67
2024/04/26 05:53:27;;;;;;;2.95;1.65;;;;;;;;;;5353704;26;19997;-69
2024/04/26 05:55:54;;;;;;;4.93;2.05;;;;;;;;;;5364943;26;20432;-67
2024/04/26 05:58:20;;;;;;;5.25;1.85;;;;;;;;;;5366346;26;20023;-67
2024/04/26 06:00:46;;;;;;;2.78;1.40;;;;;;;;;;5355489;26;20329;-67
2024/04/26 06:03:12;;;;;;;3.58;1.98;;;;;;;;;;5365853;26;20089;-66
2024/04/26 06:05:37;;;;;;;4.25;1.75;;;;;;;;;;5364804;26;20084;-66
2024/04/26 06:08:03;;;;;;;5.57;1.85;;;;;;;;;;5367061;26;19996;-68
2024/04/26 06:10:29;;;;;;;3.15;1.90;;;;;;;;;;5358750;26;20108;-67
2024/04/26 06:12:55;;;;;;;5.22;2.15;;;;;;;;;;5354543;26;20007;-67
2024/04/26 06:15:23;;;;;;;4.13;2.00;;;;;;;;;;5364658;26;20122;-67
2024/04/26 06:17:48;;;;;;;2.83;1.50;;;;;;;;;;5363329;26;20100;-67
2024/04/26 06:20:17;;;;;;;2.45;1.50;;;;;;;;;;5369558;26;20131;-67
2024/04/26 06:22:43;;;;;;;4.20;2.15;;;;;;;;;;5369167;26;19996;-67
2024/04/26 06:25:09;;;;;;;3.10;1.83;;;;;;;;;;5351080;26;20015;-69
2024/04/26 06:27:35;;;;;;;4.93;2.53;;;;;;;;;;5360327;26;20020;-69
2024/04/26 06:30:01;;;;;;;6.70;2.42;;;;;;;;;;5365617;26;20014;-69
2024/04/26 06:32:27;;;;;;;3.85;2.10;;;;;;;;;;5370688;26;20421;-70
2024/04/26 06:34:53;;;;;;;4.15;1.88;;;;;;;;;;5368799;26;20181;-70
2024/04/26 06:37:19;;;;;;;3.42;1.88;;;;;;;;;;5370407;26;20019;-69
2024/04/26 06:39:45;;;;;;;3.40;1.80;;;;;;;;;;5354501;26;19996;-69
2024/04/26 06:42:10;;;;;;;3.30;2.17;;;;;;;;;;5367028;26;20131;-70
2024/04/26 06:44:36;;;;;;;4.35;2.40;;;;;;;;;;5369173;26;20073;-69
2024/04/26 06:47:02;;;;;;;4.38;1.80;;;;;;;;;;5357683;26;20022;-69
2024/04/26 06:49:28;;;;;;;3.90;2.45;;;;;;;;;;5369851;26;20401;-70
2024/04/26 06:51:54;;;;;;;3.17;1.88;;;;;;;;;;5367471;26;20011;-70
2024/04/26 06:54:20;;;;;;;4.32;2.33;;;;;;;;;;5366675;26;20047;-70
2024/04/26 06:56:46;;;;;;;4.35;1.92;;;;;;;;;;5354233;26;20004;-70
2024/04/26 06:59:12;;;;;;;5.20;2.15;;;;;;;;;;5345331;26;20073;-71
2024/04/26 07:01:38;;;;;;;4.97;2.42;;;;;;;;;;5359333;26;20023;-69
2024/04/26 07:04:04;;;;;;;4.35;2.15;;;;;;;;;;5349197;26;20086;-69
2024/04/26 07:06:30;;;;;;;4.30;2.17;;;;;;;;;;5365261;26;19996;-71
2024/04/26 07:08:56;;;;;;;4.03;1.83;;;;;;;;;;5368749;26;20196;-69
2024/04/26 07:11:22;;;;;;;5.50;2.90;;;;;;;;;;5365948;26;20020;-69
2024/04/26 07:13:50;;;;;;;3.25;1.92;;;;;;;;;;5359789;26;20017;-69
2024/04/26 07:16:18;;;;;;;3.53;1.90;;;;;;;;;;5368419;26;20378;-70
2024/04/26 07:18:43;;;;;;;3.40;2.00;;;;;;;;;;5351070;26;20310;-69
2024/04/26 07:21:10;;;;;;;2.60;1.70;;;;;;;;;;5357997;26;20025;-69
2024/04/26 07:23:36;;;;;;;4.50;1.92;;;;;;;;;;5376266;26;20096;-70
2024/04/26 07:26:02;;;;;;;4.35;1.98;;;;;;;;;;5363474;26;20005;-70
2024/04/26 07:28:27;;;;;;;2.88;1.98;;;;;;;;;;5357200;26;20100;-70
2024/04/26 07:30:53;;;;;;;3.05;1.48;;;;;;;;;;5342600;26;20001;-70
2024/04/26 07:33:25;;;;;;;3.60;2.00;;;;;;;;;;5365449;26;20039;-70
2024/04/26 07:35:51;;;;;;;3.58;1.80;;;;;;;;;;5354849;26;20045;-71
2024/04/26 07:38:16;;;;;;;3.53;2.05;;;;;;;;;;5361450;26;20008;-70
2024/04/26 07:40:42;;;;;;;6.18;2.22;;;;;;;;;;5347617;26;20005;-69
2024/04/26 07:43:08;;;;;;;2.83;1.95;;;;;;;;;;5370581;26;20000;-70
2024/04/26 07:45:34;;;;;;;4.30;2.42;;;;;;;;;;5360923;26;20012;-68
2024/04/26 07:48:00;;;;;;;3.08;1.92;;;;;;;;;;5359060;26;20004;-67
2024/04/26 07:50:26;;;;;;;3.80;2.10;;;;;;;;;;5358453;26;20004;-67
2024/04/26 07:52:52;;;;;;;7.20;2.08;;;;;;;;;;5361205;26;20005;-67
2024/04/26 07:55:18;;;;;;;3.47;1.80;;;;;;;;;;5363416;26;20076;-71
2024/04/26 07:57:44;;;;;;;2.90;1.80;;;;;;;;;;5358676;26;20012;-70
2024/04/26 08:00:10;;;;;;;3.90;1.85;;;;;;;;;;5360281;26;20073;-72
2024/04/26 08:02:36;;;;;;;4.78;2.50;;;;;;;;;;5367970;26;20482;-71
2024/04/26 08:05:02;;;;;;;6.00;2.33;;;;;;;;;;5359812;26;20009;-72
2024/04/26 08:07:28;;;;;;;3.05;1.92;;;;;;;;;;5367127;26;20079;-72
2024/04/26 08:09:54;;;;;;;4.47;2.05;;;;;;;;;;5356489;26;20008;-71
2024/04/26 08:12:20;;;;;;;3.17;1.73;;;;;;;;;;5343824;26;20000;-72
2024/04/26 08:14:47;;;;;;;7.35;2.50;;;;;;;;;;5349593;26;20414;-71
2024/04/26 08:17:13;;;;;;;2.85;1.70;;;;;;;;;;5368452;26;20097;-71
2024/04/26 08:19:38;;;;;;;4.72;2.33;;;;;;;;;;5365824;26;20015;-71
2024/04/26 08:22:04;;;;;;;6.05;2.38;;;;;;;;;;5366290;26;20285;-70
2024/04/26 08:24:30;;;;;;;4.57;2.20;;;;;;;;;;5365004;26;20059;-72
2024/04/26 08:26:57;;;;;;;3.47;1.75;;;;;;;;;;5361110;26;20014;-70
2024/04/26 08:29:23;;;;;;;3.35;2.08;;;;;;;;;;5364283;26;20397;-70
2024/04/26 08:31:49;;;;;;;4.30;2.03;;;;;;;;;;5366998;26;20000;-71
2024/04/26 08:34:16;;;;;;;5.07;2.00;;;;;;;;;;5367696;26;19996;-71
2024/04/26 08:36:44;;;;;;;3.45;1.70;;;;;;;;;;5366576;26;20357;-71
2024/04/26 08:39:11;;;;;;;3.55;2.13;;;;;;;;;;5359291;26;20028;-70
2024/04/26 08:41:37;;;;;;;6.40;2.20;;;;;;;;;;5365060;26;20397;-71
2024/04/26 08:44:03;;;;;;;4.25;1.98;;;;;;;;;;5352027;26;20012;-71
2024/04/26 08:46:30;;;;;;;4.40;2.38;;;;;;;;;;5368095;26;20000;-70
2024/04/26 08:48:56;;;;;;;5.55;1.90;;;;;;;;;;5365505;26;20155;-71
2024/04/26 08:51:23;;;;;;;3.28;1.92;;;;;;;;;;5365635;26;20028;-71
2024/04/26 08:53:49;;;;;;;4.88;2.28;;;;;;;;;;5368586;26;20651;-71
2024/04/26 08:56:19;;;;;;;3.88;1.75;;;;;;;;;;5356083;26;20038;-70
2024/04/26 08:58:47;;;;;;;4.03;1.98;;;;;;;;;;5356037;26;20000;-71
2024/04/26 09:01:13;;;;;;;4.97;2.30;;;;;;;;;;5370913;26;20320;-71
2024/04/26 09:03:39;;;;;;;2.83;1.90;;;;;;;;;;5356590;26;20282;-70
2024/04/26 09:06:05;;;;;;;2.97;1.80;;;;;;;;;;5354024;26;20085;-70
2024/04/26 09:08:31;;;;;;;3.42;2.00;;;;;;;;;;5368177;26;20000;-70
2024/04/26 09:10:57;;;;;;;4.20;1.88;;;;;;;;;;5366735;26;20011;-71
2024/04/26 09:13:24;;;;;;;4.38;2.15;;;;;;;;;;5360310;26;20008;-69
2024/04/26 09:15:50;;;;;;;4.25;1.88;;;;;;;;;;5368065;26;20093;-69
2024/04/26 09:18:16;;;;;;;3.47;1.95;;;;;;;;;;5365872;26;20241;-68
2024/04/26 09:20:42;;;;;;;4.72;2.22;;;;;;;;;;5369360;26;20496;-69
2024/04/26 09:23:10;;;;;;;6.25;1.75;;;;;;;;;;5371777;26;20007;-68
2024/04/26 09:25:40;;;;;;;3.20;1.67;;;;;;;;;;5350062;26;20131;-69
2024/04/26 09:28:07;;;;;;;5.85;2.60;;;;;;;;;;5369459;26;20007;-69
2024/04/26 09:30:42;;;;;;;3.03;1.95;;;;;;;;;;5367206;26;20411;-69
2024/04/26 09:33:08;;;;;;;3.70;1.83;;;;;;;;;;5362382;26;20000;-67
2024/04/26 09:35:35;;;;;;;6.07;2.15;;;;;;;;;;5367373;26;20015;-68
2024/04/26 09:38:03;;;;;;;3.63;2.17;;;;;;;;;;5359420;26;20001;-68
2024/04/26 09:40:29;;;;;;;3.47;1.75;;;;;;;;;;5357281;26;20001;-68
2024/04/26 09:42:56;;;;;;;5.25;2.45;;;;;;;;;;5370376;26;20048;-68
2024/04/26 09:45:22;;;;;;;4.97;1.98;;;;;;;;;;5371074;26;20370;-68
2024/04/26 09:47:50;;;;;;;3.63;1.85;;;;;;;;;;5364860;26;20012;-67
2024/04/26 09:50:17;;;;;;;4.65;1.98;;;;;;;;;;5344485;26;20020;-67
2024/04/26 09:52:45;;;;;;;5.85;2.08;;;;;;;;;;5360498;26;20185;-67
2024/04/26 09:55:11;;;;;;;4.07;2.25;;;;;;;;;;5363912;26;20019;-68
2024/04/26 09:57:37;;;;;;;3.83;1.77;;;;;;;;;;5370414;26;20102;-67
2024/04/26 10:00:03;;;;;;;3.70;2.08;;;;;;;;;;5363460;26;20098;-67
2024/04/26 10:02:30;;;;;;;3.65;2.05;;;;;;;;;;5354907;26;20096;-67
2024/04/26 10:04:56;;;;;;;4.28;2.22;;;;;;;;;;5355643;26;20000;-67
2024/04/26 10:07:23;;;;;;;4.78;2.28;;;;;;;;;;5365043;26;20394;-68
2024/04/26 10:09:59;;;;;;;4.20;2.28;;;;;;;;;;5358428;26;20005;-68
2024/04/26 10:12:29;;;;;;;4.25;2.50;;;;;;;;;;5358684;26;20081;-67
2024/04/26 10:15:15;;;;;;;3.78;2.00;;;;;;;;;;5363642;26;20018;-68
2024/04/26 10:17:48;;;;;;;4.70;2.33;;;;;;;;;;5383286;26;20031;-69
2024/04/26 10:20:14;;;;;;;4.80;2.65;;;;;;;;;;5368747;26;20004;-67
2024/04/26 10:22:39;;;;;;;3.75;2.33;;;;;;;;;;5368940;26;20354;-67
2024/04/26 10:25:05;;;;;;;4.47;2.53;;;;;;;;;;5365230;26;20333;-68
2024/04/26 10:27:31;;;;;;;5.03;2.60;;;;;;;;;;5368852;26;20005;-68
2024/04/26 10:29:57;;;;;;;4.80;2.75;;;;;;;;;;5368411;26;20139;-68
2024/04/26 10:32:23;;;;;;;4.95;2.63;;;;;;;;;;5366709;26;20151;-68
2024/04/26 10:34:49;;;;;;;5.32;2.70;;;;;;;;;;5359408;26;20092;-67
2024/04/26 10:37:16;;;;;;;4.40;2.45;;;;;;;;;;5354990;26;20000;-67
2024/04/26 10:39:42;;;;;;;3.72;2.30;;;;;;;;;;5353339;26;20011;-68
2024/04/26 10:42:09;;;;;;;5.15;3.20;;;;;;;;;;5365707;26;20019;-67
2024/04/26 10:44:37;;;;;;;5.78;2.97;;;;;;;;;;5362755;26;20011;-67
2024/04/26 10:47:03;;;;;;;5.43;3.00;;;;;;;;;;5367650;26;20170;-68
2024/04/26 10:49:29;;;;;;;4.43;2.20;;;;;;;;;;5356273;26;20008;-68
2024/04/26 10:52:00;;;;;;;4.50;2.70;;;;;;;;;;5363827;26;20011;-68
2024/04/26 10:54:26;;;;;;;5.35;2.90;;;;;;;;;;5362354;26;20402;-69
2024/04/26 10:56:51;;;;;;;4.72;2.92;;;;;;;;;;5351188;26;20001;-68
2024/04/26 10:59:23;;;;;;;5.50;2.83;;;;;;;;;;5358887;26;20095;-67
2024/04/26 11:01:59;;;;;;;5.28;3.10;;;;;;;;;;5369232;26;20004;-68
2024/04/26 11:04:30;;;;;;;5.55;2.67;;;;;;;;;;5360877;26;20020;-68
2024/04/26 11:06:56;;;;;;;5.72;2.80;;;;;;;;;;5362619;26;20069;-68
2024/04/26 11:09:22;;;;;;;5.25;3.03;;;;;;;;;;5348959;26;20016;-68
2024/04/26 11:11:48;;;;;;;5.60;3.03;;;;;;;;;;5357240;26;20099;-68
2024/04/26 11:14:14;;;;;;;6.50;3.28;;;;;;;;;;5364307;26;20459;-68
2024/04/26 11:16:43;;;;;;;7.38;3.15;;;;;;;;;;5359435;26;20012;-68
2024/04/26 11:19:09;;;;;;;5.10;2.72;;;;;;;;;;5368143;26;20035;-68
2024/04/26 11:21:35;;;;;;;5.32;2.97;;;;;;;;;;5342090;26;20053;-68
2024/04/26 11:24:01;;;;;;;5.25;3.00;;;;;;;;;;5367091;26;19996;-68
2024/04/26 11:26:27;;;;;;;6.38;3.05;;;;;;;;;;5365944;26;20008;-69
2024/04/26 11:28:52;;;;;;;4.22;2.70;;;;;;;;;;5365596;26;20000;-68
2024/04/26 11:31:18;;;;;;;6.55;3.15;;;;;;;;;;5363884;26;20000;-68
2024/04/26 11:33:44;;;;;;;4.45;2.90;;;;;;;;;;5368330;26;20015;-67
2024/04/26 11:36:10;;;;;;;6.65;3.03;;;;;;;;;;5359919;26;19993;-68
2024/04/26 11:38:36;;;;;;;5.15;3.05;;;;;;;;;;5365152;26;20010;-68
2024/04/26 11:41:02;;;;;;;4.88;2.65;;;;;;;;;;5343435;26;20322;-68
2024/04/26 11:43:28;;;;;;;6.30;2.95;;;;;;;;;;5367699;26;20015;-69
2024/04/26 11:45:54;;;;;;;5.30;2.80;;;;;;;;;;5362169;26;20016;-68
2024/04/26 11:48:20;;;;;;;5.35;3.17;;;;;;;;;;5365878;26;20081;-68
2024/04/26 11:50:47;;;;;;;4.40;2.85;;;;;;;;;;5360865;26;20001;-68
2024/04/26 11:53:14;;;;;;;5.18;2.67;;;;;;;;;;5359016;26;20489;-68
2024/04/26 11:55:41;;;;;;;5.30;2.70;;;;;;;;;;5368531;26;20039;-69
2024/04/26 11:58:07;;;;;;;4.25;2.58;;;;;;;;;;5370771;26;20526;-68
2024/04/26 12:00:33;;;;;;;3.85;2.88;;;;;;;;;;5363844;26;20413;-68
2024/04/26 12:02:59;;;;;;;4.80;2.45;;;;;;;;;;5352691;26;20305;-68
2024/04/26 12:05:25;;;;;;;5.60;2.67;;;;;;;;;;5356705;26;19996;-68
2024/04/26 12:07:50;;;;;;;4.10;2.40;;;;;;;;;;5366407;26;20039;-68
2024/04/26 12:10:18;;;;;;;5.80;2.67;;;;;;;;;;5364840;26;19997;-69
2024/04/26 12:12:44;;;;;;;5.78;2.90;;;;;;;;;;5365177;26;20016;-69
2024/04/26 12:15:09;;;;;;;4.80;2.75;;;;;;;;;;5358439;26;20361;-69
2024/04/26 12:17:35;;;;;;;5.05;3.05;;;;;;;;;;5368296;26;20577;-69
2024/04/26 12:20:02;;;;;;;4.05;2.60;;;;;;;;;;5362641;26;20007;-69
2024/04/26 12:22:28;;;;;;;4.47;2.65;;;;;;;;;;5364791;26;20015;-70
2024/04/26 12:24:54;;;;;;;5.32;2.72;;;;;;;;;;5363926;26;20001;-69
2024/04/26 12:27:20;;;;;;;7.43;2.72;;;;;;;;;;5368931;26;20019;-69
2024/04/26 12:29:46;;;;;;;4.60;2.67;;;;;;;;;;5369871;26;20024;-69
2024/04/26 12:32:12;;;;;;;3.15;2.25;;;;;;;;;;5364746;26;20008;-69
2024/04/26 12:34:41;;;;;;;5.05;2.53;;;;;;;;;;5349527;26;20020;-69
2024/04/26 12:37:09;;;;;;;4.15;2.60;;;;;;;;;;5363979;26;20008;-69
2024/04/26 12:39:37;;;;;;;3.85;2.60;;;;;;;;;;5358125;26;20012;-68
2024/04/26 12:42:03;;;;;;;4.72;2.40;;;;;;;;;;5355239;26;20005;-68
2024/04/26 12:44:29;;;;;;;4.30;2.10;;;;;;;;;;5362896;26;20123;-69
2024/04/26 12:46:58;;;;;;;3.58;2.38;;;;;;;;;;5355554;26;20084;-69
2024/04/26 12:49:24;;;;;;;4.22;2.22;;;;;;;;;;5362489;26;20409;-68
2024/04/26 12:51:50;;;;;;;4.40;2.65;;;;;;;;;;5359321;26;20077;-69
2024/04/26 12:54:16;;;;;;;3.65;2.00;;;;;;;;;;5357241;26;20016;-69
2024/04/26 12:56:41;;;;;;;3.17;2.20;;;;;;;;;;5351882;26;20001;-70
2024/04/26 12:59:08;;;;;;;3.13;1.55;;;;;;;;;;5353776;26;20009;-69
2024/04/26 13:01:35;;;;;;;3.78;1.63;;;;;;;;;;5368466;26;20016;-68
2024/04/26 13:04:01;;;;;;;3.20;1.52;;;;;;;;;;5364001;26;20036;-69
2024/04/26 13:06:27;;;;;;;2.83;1.83;;;;;;;;;;5365359;26;20074;-69
2024/04/26 13:08:53;;;;;;;5.20;1.73;;;;;;;;;;5351717;26;20016;-69
2024/04/26 13:11:19;;;;;;;3.90;1.60;;;;;;;;;;5366375;26;20411;-68
2024/04/26 13:13:45;;;;;;;3.60;1.58;;;;;;;;;;5360666;26;20087;-69
2024/04/26 13:16:17;;;;;;;3.17;1.60;;;;;;;;;;5371443;26;20118;-69
2024/04/26 13:18:43;;;;;;;4.55;1.65;;;;;;;;;;5356288;26;20028;-69
2024/04/26 13:21:09;;;;;;;4.20;1.73;;;;;;;;;;5353469;26;20075;-69
2024/04/26 13:23:35;;;;;;;2.30;1.40;;;;;;;;;;5365685;26;20004;-71
2024/04/26 13:26:02;;;;;;;1.85;1.40;;;;;;;;;;5352081;26;20200;-68
2024/04/26 13:28:29;;;;;;;2.72;1.30;;;;;;;;;;5358642;26;20336;-70
2024/04/26 13:30:55;;;;;;;3.00;1.70;;;;;;;;;;5359650;26;20080;-68
2024/04/26 13:33:21;;;;;;;1.85;1.23;;;;;;;;;;5359788;26;20278;-70
2024/04/26 13:35:48;;;;;;;4.43;1.65;;;;;;;;;;5366545;26;20042;-69
2024/04/26 13:38:14;;;;;;;2.72;1.73;;;;;;;;;;5367632;26;20008;-68
2024/04/26 13:40:42;;;;;;;3.22;1.77;;;;;;;;;;5354242;26;20011;-68
2024/04/26 13:43:08;;;;;;;2.65;1.70;;;;;;;;;;5369145;26;20081;-69
2024/04/26 13:45:33;;;;;;;3.95;1.63;;;;;;;;;;5362045;26;20012;-68
2024/04/26 13:47:59;;;;;;;3.50;1.85;;;;;;;;;;5358283;26;20000;-69
2024/04/26 13:50:25;;;;;;;3.13;1.58;;;;;;;;;;5353998;26;20010;-68
2024/04/26 13:52:51;;;;;;;2.33;1.45;;;;;;;;;;5354538;26;20024;-69
2024/04/26 13:55:17;;;;;;;1.80;1.30;;;;;;;;;;5357121;26;20073;-69
2024/04/26 13:57:43;;;;;;;2.92;1.52;;;;;;;;;;5361280;26;20020;-68
2024/04/26 14:00:09;;;;;;;2.70;1.80;;;;;;;;;;5366692;26;20007;-69
2024/04/26 14:02:35;;;;;;;3.40;1.60;;;;;;;;;;5348741;26;20030;-69
2024/04/26 14:05:03;;;;;;;2.03;1.58;;;;;;;;;;5347820;26;20075;-69
2024/04/26 14:07:32;;;;;;;3.30;2.15;;;;;;;;;;5359254;26;20039;-69
2024/04/26 14:09:58;;;;;;;2.42;1.40;;;;;;;;;;5364436;26;19996;-69
2024/04/26 14:12:24;;;;;;;3.50;1.80;;;;;;;;;;5368948;26;20093;-68
2024/04/26 14:14:50;;;;;;;3.15;1.80;;;;;;;;;;5369177;26;20012;-68
2024/04/26 14:17:16;;;;;;;2.13;1.52;;;;;;;;;;5359176;26;20162;-68
2024/04/26 14:19:41;;;;;;;2.83;1.70;;;;;;;;;;5354549;26;20091;-69
2024/04/26 14:22:07;;;;;;;3.83;1.88;;;;;;;;;;5357061;26;20005;-68
2024/04/26 14:24:37;;;;;;;2.55;1.50;;;;;;;;;;5360563;26;20065;-70
2024/04/26 14:27:03;;;;;;;4.75;1.30;;;;;;;;;;5350035;26;20022;-69
2024/04/26 14:29:33;;;;;;;2.50;1.58;;;;;;;;;;5367619;26;20029;-67
2024/04/26 14:31:59;;;;;;;3.45;1.58;;;;;;;;;;5362103;26;20023;-69
2024/04/26 14:34:26;;;;;;;2.70;1.52;;;;;;;;;;5355814;26;20001;-68
2024/04/26 14:36:52;;;;;;;2.20;1.38;;;;;;;;;;5356132;26;19996;-67
2024/04/26 14:39:20;;;;;;;3.60;1.35;;;;;;;;;;5351039;26;20037;-68